sensor_id;sensor_type;location;lat;lon;timestamp;temperature;humidity
5828;DHT22;42583;50.240;8.444;2022-11-27T00:01:12;3.90;99.90
5828;DHT22;42583;50.240;8.444;2022-11-27T00:16:13;3.70;99.90
5828;DHT22;42583;50.240;8.444;2022-11-27T00:31:19;3.70;99.90
5828;DHT22;42583;50.240;8.444;2022-11-27T00:46:22;3.70;99.90
5828;DHT22;42583;50.240;8.444;2022-11-27T01:01:29;3.70;99.90
5828;DHT22;42583;50.240;8.444;2022-11-27T01:16:32;3.50;99.90
5828;DHT22;42583;50.240;8.444;2022-11-27T01:31:33;3.50;99.90
5828;DHT22;42583;50.240;8.444;2022-11-27T01:46:38;3.70;99.90
5828;DHT22;42583;50.240;8.444;2022-11-27T02:01:39;3.80;99.90
5828;DHT22;42583;50.240;8.444;2022-11-27T02:32:28;3.40;99.90
5828;DHT22;42583;50.240;8.444;2022-11-27T02:47:31;3.50;99.90
5828;DHT22;42583;50.240;8.444;2022-11-27T03:02:36;3.60;99.90
5828;DHT22;42583;50.240;8.444;2022-11-27T03:17:52;3.70;99.90
5828;DHT22;42583;50.240;8.444;2022-11-27T03:32:54;3.80;99.90
5828;DHT22;42583;50.240;8.444;2022-11-27T03:48:22;3.90;99.90
5828;DHT22;42583;50.240;8.444;2022-11-27T04:03:27;4.00;99.90
5828;DHT22;42583;50.240;8.444;2022-11-27T04:18:28;4.20;99.90
5828;DHT22;42583;50.240;8.444;2022-11-27T04:33:29;4.20;99.90
5828;DHT22;42583;50.240;8.444;2022-11-27T04:48:29;4.30;99.90
5828;DHT22;42583;50.240;8.444;2022-11-27T05:03:30;4.40;99.90
5828;DHT22;42583;50.240;8.444;2022-11-27T05:18:31;4.50;99.90
5828;DHT22;42583;50.240;8.444;2022-11-27T05:33:31;4.60;99.90
5828;DHT22;42583;50.240;8.444;2022-11-27T05:48:34;4.70;99.90
5828;DHT22;42583;50.240;8.444;2022-11-27T06:03:34;4.80;99.90
5828;DHT22;42583;50.240;8.444;2022-11-27T06:18:35;5.00;99.90
5828;DHT22;42583;50.240;8.444;2022-11-27T06:33:35;5.00;99.90
5828;DHT22;42583;50.240;8.444;2022-11-27T06:48:36;4.90;99.90
5828;DHT22;42583;50.240;8.444;2022-11-27T07:03:37;4.90;99.90
5828;DHT22;42583;50.240;8.444;2022-11-27T07:18:39;4.90;99.90
5828;DHT22;42583;50.240;8.444;2022-11-27T07:33:40;5.00;99.60
5828;DHT22;42583;50.240;8.444;2022-11-27T07:48:41;4.90;99.90
5828;DHT22;42583;50.240;8.444;2022-11-27T08:03:42;4.90;99.70
5828;DHT22;42583;50.240;8.444;2022-11-27T08:18:43;5.10;99.30
5828;DHT22;42583;50.240;8.444;2022-11-27T08:33:44;5.30;97.30
5828;DHT22;42583;50.240;8.444;2022-11-27T08:48:44;5.60;97.20
5828;DHT22;42583;50.240;8.444;2022-11-27T09:03:45;6.50;94.10
5828;DHT22;42583;50.240;8.444;2022-11-27T09:18:48;6.60;93.90
5828;DHT22;42583;50.240;8.444;2022-11-27T09:33:49;6.70;93.20
5828;DHT22;42583;50.240;8.444;2022-11-27T09:48:51;6.80;90.30
5828;DHT22;42583;50.240;8.444;2022-11-27T10:03:52;6.80;90.20
5828;DHT22;42583;50.240;8.444;2022-11-27T10:49:43;7.30;78.60
5828;DHT22;42583;50.240;8.444;2022-11-27T11:04:46;7.30;76.70
5828;DHT22;42583;50.240;8.444;2022-11-27T11:19:46;6.90;77.60
5828;DHT22;42583;50.240;8.444;2022-11-27T11:34:48;7.00;71.60
5828;DHT22;42583;50.240;8.444;2022-11-27T11:49:53;7.30;70.30
5828;DHT22;42583;50.240;8.444;2022-11-27T12:35:43;8.40;71.30
5828;DHT22;42583;50.240;8.444;2022-11-27T12:50:52;8.20;67.20
5828;DHT22;42583;50.240;8.444;2022-11-27T13:06:16;7.70;67.60
5828;DHT22;42583;50.240;8.444;2022-11-27T13:21:24;7.40;58.80
5828;DHT22;42583;50.240;8.444;2022-11-27T13:36:31;7.40;58.60
5828;DHT22;42583;50.240;8.444;2022-11-27T13:51:36;7.30;62.50
5828;DHT22;42583;50.240;8.444;2022-11-27T14:06:37;7.00;67.60
5828;DHT22;42583;50.240;8.444;2022-11-27T14:21:39;6.80;67.70
5828;DHT22;42583;50.240;8.444;2022-11-27T14:36:42;6.70;65.30
5828;DHT22;42583;50.240;8.444;2022-11-27T14:51:42;6.60;65.80
5828;DHT22;42583;50.240;8.444;2022-11-27T15:06:45;6.50;71.50
5828;DHT22;42583;50.240;8.444;2022-11-27T15:21:47;6.40;78.80
5828;DHT22;42583;50.240;8.444;2022-11-27T15:36:55;6.10;82.20
5828;DHT22;42583;50.240;8.444;2022-11-27T15:51:57;6.00;86.80
5828;DHT22;42583;50.240;8.444;2022-11-27T16:06:57;5.90;89.60
5828;DHT22;42583;50.240;8.444;2022-11-27T16:21:58;5.70;93.80
5828;DHT22;42583;50.240;8.444;2022-11-27T16:37:00;5.70;90.60
5828;DHT22;42583;50.240;8.444;2022-11-27T16:52:01;5.80;90.30
5828;DHT22;42583;50.240;8.444;2022-11-27T17:07:02;5.70;90.20
5828;DHT22;42583;50.240;8.444;2022-11-27T17:22:03;5.70;88.20
5828;DHT22;42583;50.240;8.444;2022-11-27T17:37:03;5.70;88.40
5828;DHT22;42583;50.240;8.444;2022-11-27T17:52:04;5.90;82.50
5828;DHT22;42583;50.240;8.444;2022-11-27T18:07:05;6.30;75.50
5828;DHT22;42583;50.240;8.444;2022-11-27T18:22:05;6.60;72.70
5828;DHT22;42583;50.240;8.444;2022-11-27T18:37:08;6.80;71.40
5828;DHT22;42583;50.240;8.444;2022-11-27T18:52:09;6.50;74.30
5828;DHT22;42583;50.240;8.444;2022-11-27T19:07:10;6.50;73.70
5828;DHT22;42583;50.240;8.444;2022-11-27T19:22:10;6.70;70.50
5828;DHT22;42583;50.240;8.444;2022-11-27T19:37:11;6.90;67.20
5828;DHT22;42583;50.240;8.444;2022-11-27T19:52:12;7.10;64.90
5828;DHT22;42583;50.240;8.444;2022-11-27T20:07:12;7.20;63.10
5828;DHT22;42583;50.240;8.444;2022-11-27T20:22:13;7.10;66.00
5828;DHT22;42583;50.240;8.444;2022-11-27T20:37:13;6.60;70.30
5828;DHT22;42583;50.240;8.444;2022-11-27T20:52:14;6.50;68.60
5828;DHT22;42583;50.240;8.444;2022-11-27T21:07:15;6.50;69.20
5828;DHT22;42583;50.240;8.444;2022-11-27T21:22:15;6.50;67.70
5828;DHT22;42583;50.240;8.444;2022-11-27T21:37:16;6.60;63.40
5828;DHT22;42583;50.240;8.444;2022-11-27T21:52:16;7.00;63.90
5828;DHT22;42583;50.240;8.444;2022-11-27T22:07:17;6.80;64.30
5828;DHT22;42583;50.240;8.444;2022-11-27T22:22:18;7.00;62.20
5828;DHT22;42583;50.240;8.444;2022-11-27T22:37:18;7.30;63.80
5828;DHT22;42583;50.240;8.444;2022-11-27T22:52:19;7.40;63.10
5828;DHT22;42583;50.240;8.444;2022-11-27T23:07:19;7.40;62.60
5828;DHT22;42583;50.240;8.444;2022-11-27T23:22:20;7.50;61.00
5828;DHT22;42583;50.240;8.444;2022-11-27T23:37:20;7.40;60.80
5828;DHT22;42583;50.240;8.444;2022-11-27T23:52:21;7.20;59.80
